Israelandia, Brazil
Current Conditions -  °F | °C
As of 1:25 PM on Friday 24 Oct 2014 (Local Time) from SBGO Reporting Station
Thunderstorm Thunderstorm  
Wind Chill: 86°   Ceiling: Unl
Heat Index: 86°   Visibility: 6mi
Dew Point: 55°   Wind: 6mph
Humidity: 35%   Direction: 30°NNE
Pressure: 30"   Gusts: NA
Location:  16.33°S, 50.91°W
Report Text: SBGO 241525Z 03005KT 9999 TS SCT040 FEW045CB 30/13 Q1016
Loading
Personal Weather Stations






























Interactive Weather Map
Tropical Storm Tracking
New forecast layout! Learn more

10-Day Weather Forecast

Advertisements
Track Severe Weather on mobile